createdAt,value
2019-02-03T00:02:04.179Z,3.20
2019-02-03T00:04:30.485Z,3.20
2019-02-03T00:07:03.281Z,3.10
2019-02-03T00:09:25.301Z,3.00
2019-02-03T00:11:51.868Z,3.10
2019-02-03T00:14:18.497Z,3.20
2019-02-03T00:16:44.791Z,3.10
2019-02-03T00:19:11.420Z,3.20
2019-02-03T00:21:38.086Z,3.20
2019-02-03T00:24:04.398Z,3.20
2019-02-03T00:26:30.737Z,3.10
2019-02-03T00:28:57.125Z,2.90
2019-02-03T00:31:23.435Z,2.90
2019-02-03T00:33:49.763Z,3.00
2019-02-03T00:36:16.859Z,2.90
2019-02-03T00:38:43.492Z,2.90
2019-02-03T00:41:10.096Z,2.80
2019-02-03T00:43:36.713Z,2.80
2019-02-03T00:46:04.408Z,2.80
2019-02-03T00:48:31.014Z,2.80
2019-02-03T00:50:57.325Z,2.70
2019-02-03T00:53:24.110Z,2.60
2019-02-03T00:55:50.471Z,2.60
2019-02-03T00:58:16.820Z,2.50
2019-02-03T01:00:43.256Z,2.50
2019-02-03T01:03:10.576Z,2.50
2019-02-03T01:05:37.119Z,2.50
2019-02-03T01:08:05.099Z,2.50
2019-02-03T01:10:31.434Z,2.30
2019-02-03T01:12:58.004Z,2.40
2019-02-03T01:15:24.568Z,2.50
2019-02-03T01:17:50.893Z,2.60
2019-02-03T01:20:22.671Z,2.60
2019-02-03T01:22:49.091Z,2.60
2019-02-03T01:25:15.806Z,2.70
2019-02-03T01:27:42.194Z,2.70
2019-02-03T01:30:18.622Z,2.80
2019-02-03T01:32:45.266Z,2.70
2019-02-03T01:35:12.001Z,2.70
2019-02-03T01:37:40.000Z,2.60
2019-02-03T01:40:15.040Z,2.60
2019-02-03T01:42:42.613Z,2.70
2019-02-03T01:45:14.034Z,2.50
2019-02-03T01:47:40.359Z,2.60
2019-02-03T01:50:10.467Z,2.60
2019-02-03T01:52:37.283Z,2.50
2019-02-03T01:55:08.197Z,2.40
2019-02-03T01:57:34.799Z,2.50
2019-02-03T02:00:01.917Z,2.30
2019-02-03T02:02:28.653Z,2.30
2019-02-03T02:04:54.973Z,2.40
2019-02-03T02:07:21.261Z,2.40
2019-02-03T02:09:47.781Z,2.50
2019-02-03T02:12:14.328Z,2.60
2019-02-03T02:14:40.977Z,2.40
2019-02-03T02:17:07.270Z,2.50
2019-02-03T02:19:33.604Z,2.50
2019-02-03T02:21:59.923Z,2.50
2019-02-03T02:24:26.390Z,2.60
2019-02-03T02:26:53.105Z,2.40
2019-02-03T02:29:19.437Z,2.50
2019-02-03T02:31:46.035Z,2.50
2019-02-03T02:34:12.318Z,2.50
2019-02-03T02:36:38.785Z,2.50
2019-02-03T02:39:06.538Z,2.50
2019-02-03T02:41:34.767Z,2.50
2019-02-03T02:44:01.738Z,2.60
2019-02-03T02:46:28.295Z,2.60
2019-02-03T02:48:54.624Z,2.60
2019-02-03T02:51:20.928Z,2.60
2019-02-03T02:53:47.252Z,2.60
2019-02-03T02:56:13.547Z,2.60
2019-02-03T02:58:40.137Z,2.60
2019-02-03T03:01:06.725Z,2.60
2019-02-03T03:03:33.317Z,2.40
2019-02-03T03:06:00.679Z,2.30
2019-02-03T03:08:27.289Z,2.30
2019-02-03T03:10:53.627Z,2.40
2019-02-03T03:13:19.922Z,2.40
2019-02-03T03:15:46.259Z,2.30
2019-02-03T03:18:12.587Z,2.30
2019-02-03T03:20:38.903Z,2.30
2019-02-03T03:23:05.259Z,2.30
2019-02-03T03:25:31.583Z,2.30
2019-02-03T03:27:58.151Z,2.40
2019-02-03T03:30:27.155Z,2.40
2019-02-03T03:32:54.164Z,2.40
2019-02-03T03:35:20.866Z,2.40
2019-02-03T03:37:47.233Z,2.40
2019-02-03T03:40:17.909Z,2.40
2019-02-03T03:42:44.540Z,2.40
2019-02-03T03:45:11.404Z,2.30
2019-02-03T03:47:38.195Z,2.30
2019-02-03T03:50:11.930Z,2.40
2019-02-03T03:52:39.437Z,2.40
2019-02-03T03:55:06.981Z,2.50
2019-02-03T03:57:33.290Z,2.60
2019-02-03T03:59:59.639Z,2.60
2019-02-03T04:02:25.942Z,2.40
2019-02-03T04:04:52.269Z,2.50
2019-02-03T04:07:19.153Z,2.40
2019-02-03T04:09:45.645Z,2.40
2019-02-03T04:12:11.978Z,2.40
2019-02-03T04:14:38.283Z,2.30
2019-02-03T04:17:04.874Z,2.30
2019-02-03T04:19:31.417Z,2.10
2019-02-03T04:21:57.751Z,2.10
2019-02-03T04:24:24.082Z,2.20
2019-02-03T04:26:50.651Z,2.30
2019-02-03T04:29:17.223Z,2.30
2019-02-03T04:31:43.783Z,2.30
2019-02-03T04:34:10.395Z,2.30
2019-02-03T04:36:37.164Z,2.30
2019-02-03T04:39:05.931Z,2.30
2019-02-03T04:41:32.352Z,2.30
2019-02-03T04:43:59.004Z,2.30
2019-02-03T04:46:25.764Z,2.40
2019-02-03T04:48:52.153Z,2.40
2019-02-03T04:51:18.455Z,2.40
2019-02-03T04:53:45.058Z,2.50
2019-02-03T04:56:11.374Z,2.50
2019-02-03T04:58:37.720Z,2.40
2019-02-03T05:01:04.544Z,2.40
2019-02-03T05:03:31.120Z,2.40
2019-02-03T05:05:57.674Z,2.40
2019-02-03T05:08:24.002Z,2.40
2019-02-03T05:10:50.575Z,2.30
2019-02-03T05:13:17.154Z,2.30
2019-02-03T05:15:43.747Z,2.30
2019-02-03T05:18:10.388Z,2.40
2019-02-03T05:20:36.709Z,2.40
2019-02-03T05:23:03.059Z,2.40
2019-02-03T05:25:29.669Z,2.50
2019-02-03T05:27:56.088Z,2.40
2019-02-03T05:30:27.020Z,2.40
2019-02-03T05:32:53.469Z,2.30
2019-02-03T05:35:20.071Z,2.40
2019-02-03T05:37:46.390Z,2.30
2019-02-03T05:40:14.705Z,2.30
2019-02-03T05:42:41.286Z,2.30
2019-02-03T05:45:12.388Z,2.40
2019-02-03T05:47:38.708Z,2.30
2019-02-03T05:50:12.474Z,2.30
2019-02-03T05:52:39.032Z,2.30
2019-02-03T05:55:06.896Z,2.20
2019-02-03T05:57:33.474Z,2.30
2019-02-03T06:00:00.091Z,2.30
2019-02-03T06:02:26.868Z,2.30
2019-02-03T06:04:53.561Z,2.40
2019-02-03T06:07:20.191Z,2.30
2019-02-03T06:09:46.509Z,2.30
2019-02-03T06:12:12.838Z,2.20
2019-02-03T06:14:39.155Z,2.30
2019-02-03T06:17:05.742Z,2.10
2019-02-03T06:19:32.102Z,2.20
2019-02-03T06:21:58.677Z,2.20
2019-02-03T06:24:25.330Z,2.20
2019-02-03T06:26:51.929Z,2.20
2019-02-03T06:29:18.341Z,2.30
2019-02-03T06:31:44.773Z,2.40
2019-02-03T06:34:11.377Z,2.40
2019-02-03T06:36:37.845Z,2.30
2019-02-03T06:39:06.498Z,2.30
2019-02-03T06:41:33.088Z,2.30
2019-02-03T06:43:59.819Z,2.30
2019-02-03T06:46:30.827Z,2.30
2019-02-03T06:48:57.803Z,2.30
2019-02-03T06:51:24.436Z,2.30
2019-02-03T06:53:51.148Z,2.30
2019-02-03T06:56:17.774Z,2.40
2019-02-03T06:58:44.136Z,2.30
2019-02-03T07:01:10.722Z,2.30
2019-02-03T07:03:37.067Z,2.30
2019-02-03T07:06:03.589Z,2.40
2019-02-03T07:08:29.893Z,2.40
2019-02-03T07:10:56.309Z,2.40
2019-02-03T07:13:23.619Z,2.40
2019-02-03T07:15:49.936Z,2.40
2019-02-03T07:18:16.558Z,2.30
2019-02-03T07:20:42.867Z,2.40
2019-02-03T07:23:09.527Z,2.40
2019-02-03T07:25:36.103Z,2.50
2019-02-03T07:28:04.509Z,2.40
2019-02-03T07:30:30.825Z,2.40
2019-02-03T07:32:57.404Z,2.30
2019-02-03T07:35:23.786Z,2.30
2019-02-03T07:37:51.112Z,2.20
2019-02-03T07:40:19.943Z,2.20
2019-02-03T07:42:46.301Z,2.10
2019-02-03T07:45:12.942Z,2.00
2019-02-03T07:47:39.630Z,2.00
2019-02-03T07:50:15.786Z,2.10
2019-02-03T07:52:42.083Z,2.10
2019-02-03T07:55:13.076Z,2.00
2019-02-03T07:57:39.658Z,2.20
2019-02-03T08:00:13.687Z,2.30
2019-02-03T08:02:40.021Z,2.20
2019-02-03T08:05:09.527Z,2.00
2019-02-03T08:07:35.821Z,2.10
2019-02-03T08:10:06.339Z,2.10
2019-02-03T08:12:32.792Z,2.00
2019-02-03T08:14:59.236Z,2.10
2019-02-03T08:17:26.245Z,2.00
2019-02-03T08:19:52.816Z,2.10
2019-02-03T08:22:19.121Z,2.10
2019-02-03T08:24:45.440Z,2.00
2019-02-03T08:27:12.046Z,2.10
2019-02-03T08:29:38.330Z,2.10
2019-02-03T08:32:04.945Z,2.00
2019-02-03T08:34:31.519Z,2.00
2019-02-03T08:36:57.885Z,2.00
2019-02-03T08:39:24.233Z,1.90
2019-02-03T08:41:50.577Z,1.90
2019-02-03T08:44:17.256Z,1.80
2019-02-03T08:46:43.621Z,1.80
2019-02-03T08:49:10.160Z,1.80
2019-02-03T08:51:36.516Z,1.80
2019-02-03T08:54:03.823Z,1.90
2019-02-03T08:56:30.196Z,1.90
2019-02-03T08:58:56.789Z,1.90
2019-02-03T09:01:23.132Z,1.80
2019-02-03T09:03:49.432Z,1.80
2019-02-03T09:06:15.783Z,1.90
2019-02-03T09:08:42.679Z,1.90
2019-02-03T09:11:27.628Z,1.80
2019-02-03T09:13:55.785Z,1.90
2019-02-03T09:16:22.231Z,1.90
2019-02-03T09:18:48.819Z,1.90
2019-02-03T09:21:15.432Z,1.90
2019-02-03T09:23:42.213Z,1.90
2019-02-03T09:26:13.167Z,1.80
2019-02-03T09:28:39.596Z,1.80
2019-02-03T09:31:06.297Z,1.90
2019-02-03T09:33:32.694Z,1.90
2019-02-03T09:35:59.027Z,2.00
2019-02-03T09:38:25.365Z,2.00
2019-02-03T09:40:59.784Z,2.00
2019-02-03T09:43:20.961Z,1.90
2019-02-03T09:45:47.531Z,1.90
2019-02-03T09:48:13.844Z,1.80
2019-02-03T09:50:40.183Z,1.80
2019-02-03T09:53:07.593Z,1.80
2019-02-03T09:55:34.057Z,1.80
2019-02-03T09:58:00.954Z,1.90
2019-02-03T10:00:35.125Z,1.90
2019-02-03T10:03:03.403Z,2.00
2019-02-03T10:05:30.053Z,2.00
2019-02-03T10:07:57.240Z,1.90
2019-02-03T10:10:35.536Z,2.00
2019-02-03T10:13:02.148Z,2.00
2019-02-03T10:15:29.226Z,2.00
2019-02-03T10:17:55.955Z,2.00
2019-02-03T10:20:23.096Z,1.90
2019-02-03T10:22:49.767Z,2.00
2019-02-03T10:25:25.001Z,2.10
2019-02-03T10:27:51.570Z,2.10
2019-02-03T10:30:21.269Z,2.10
2019-02-03T10:32:48.397Z,2.10
2019-02-03T10:35:23.449Z,2.00
2019-02-03T10:37:46.974Z,2.10
2019-02-03T10:40:18.510Z,2.10
2019-02-03T10:42:46.389Z,2.20
2019-02-03T10:45:17.355Z,2.10
2019-02-03T10:47:43.924Z,2.10
2019-02-03T10:50:23.123Z,2.00
2019-02-03T10:52:50.095Z,2.10
2019-02-03T10:55:16.762Z,2.00
2019-02-03T10:57:43.849Z,1.90
2019-02-03T11:00:18.080Z,2.00
2019-02-03T11:02:43.579Z,2.20
2019-02-03T11:05:17.697Z,2.10
2019-02-03T11:07:44.391Z,2.00
2019-02-03T11:10:16.495Z,2.10
2019-02-03T11:12:42.891Z,2.00
2019-02-03T11:15:12.371Z,2.00
2019-02-03T11:17:38.702Z,2.00
2019-02-03T11:20:18.237Z,1.90
2019-02-03T11:22:44.214Z,2.00
2019-02-03T11:25:11.286Z,2.00
2019-02-03T11:27:37.831Z,2.00
2019-02-03T11:30:20.348Z,2.00
2019-02-03T11:32:47.382Z,1.90
2019-02-03T11:35:15.486Z,2.00
2019-02-03T11:37:42.280Z,2.00
2019-02-03T11:40:13.118Z,2.10
2019-02-03T11:42:39.873Z,2.10
2019-02-03T11:45:17.443Z,2.10
2019-02-03T11:47:43.753Z,2.20
2019-02-03T11:50:15.799Z,2.10
2019-02-03T11:52:42.798Z,2.20
2019-02-03T11:55:09.412Z,2.10
2019-02-03T11:57:36.222Z,2.20
2019-02-03T12:00:16.526Z,2.10
2019-02-03T12:02:42.880Z,2.20
2019-02-03T12:05:10.044Z,2.30
2019-02-03T12:07:37.011Z,2.30
2019-02-03T12:10:12.070Z,2.10
2019-02-03T12:12:38.427Z,2.10
2019-02-03T12:15:10.533Z,1.90
2019-02-03T12:17:36.902Z,1.90
2019-02-03T12:20:07.854Z,1.90
2019-02-03T12:22:34.184Z,2.00
2019-02-03T12:25:00.630Z,1.90
2019-02-03T12:27:26.916Z,1.90
2019-02-03T12:29:53.535Z,1.90
2019-02-03T12:32:19.840Z,2.00
2019-02-03T12:34:46.448Z,2.10
2019-02-03T12:37:13.225Z,2.20
2019-02-03T12:39:39.834Z,2.20
2019-02-03T12:42:13.042Z,2.30
2019-02-03T12:44:34.925Z,2.20
2019-02-03T12:47:01.296Z,2.30
2019-02-03T12:49:27.874Z,2.20
2019-02-03T12:51:54.453Z,2.20
2019-02-03T12:54:21.015Z,2.30
2019-02-03T12:56:47.325Z,2.40
2019-02-03T12:59:13.658Z,2.40
2019-02-03T13:01:40.321Z,2.40
2019-02-03T13:04:07.033Z,2.40
2019-02-03T13:06:33.892Z,2.40
2019-02-03T13:09:00.672Z,2.40
2019-02-03T13:11:28.277Z,2.40
2019-02-03T13:13:54.686Z,2.40
2019-02-03T13:16:21.081Z,2.40
2019-02-03T13:18:47.616Z,2.40
2019-02-03T13:21:14.485Z,2.40
2019-02-03T13:23:45.090Z,2.30
2019-02-03T13:26:09.084Z,2.20
2019-02-03T13:28:35.533Z,2.20
2019-02-03T13:31:02.665Z,2.30
2019-02-03T13:33:29.109Z,2.30
2019-02-03T13:35:55.788Z,2.40
2019-02-03T13:38:22.173Z,2.30
2019-02-03T13:40:49.087Z,2.30
2019-02-03T13:43:15.912Z,2.30
2019-02-03T13:45:45.014Z,2.40
2019-02-03T13:48:11.463Z,2.30
2019-02-03T13:50:38.525Z,2.40
2019-02-03T13:53:04.914Z,2.30
2019-02-03T13:55:31.286Z,2.40
2019-02-03T13:57:57.638Z,2.30
2019-02-03T14:00:30.208Z,2.20
2019-02-03T14:02:56.746Z,2.10
2019-02-03T14:05:23.425Z,2.10
2019-02-03T14:07:50.006Z,2.10
2019-02-03T14:10:27.120Z,1.90
2019-02-03T14:12:55.101Z,2.00
2019-02-03T14:15:22.091Z,2.00
2019-02-03T14:17:49.127Z,2.00
2019-02-03T14:20:25.050Z,2.00
2019-02-03T14:22:51.836Z,2.00
2019-02-03T14:25:27.611Z,1.90
2019-02-03T14:27:54.616Z,1.90
2019-02-03T14:30:25.599Z,1.80
2019-02-03T14:32:52.186Z,1.80
2019-02-03T14:35:18.812Z,1.90
2019-02-03T14:37:45.307Z,1.90
2019-02-03T14:40:20.577Z,2.00
2019-02-03T14:42:48.511Z,1.90
2019-02-03T14:45:22.971Z,1.90
2019-02-03T14:47:50.005Z,1.80
2019-02-03T14:50:20.779Z,1.90
2019-02-03T14:52:47.991Z,1.80
2019-02-03T14:55:18.814Z,1.80
2019-02-03T14:57:45.305Z,1.80
2019-02-03T15:00:22.575Z,1.80
2019-02-03T15:02:49.243Z,1.80
2019-02-03T15:05:20.166Z,1.90
2019-02-03T15:07:46.955Z,1.80
2019-02-03T15:10:14.494Z,1.70
2019-02-03T15:12:41.056Z,1.70
2019-02-03T15:15:19.219Z,1.60
2019-02-03T15:17:45.907Z,1.60
2019-02-03T15:20:16.590Z,1.60
2019-02-03T15:22:43.304Z,1.60
2019-02-03T15:25:10.183Z,1.70
2019-02-03T15:27:36.541Z,1.70
2019-02-03T15:30:19.053Z,1.70
2019-02-03T15:32:40.495Z,1.70
2019-02-03T15:35:09.534Z,1.60
2019-02-03T15:37:36.140Z,1.70
2019-02-03T15:40:11.213Z,1.70
2019-02-03T15:42:38.894Z,1.70
2019-02-03T15:45:10.131Z,1.60
2019-02-03T15:47:36.700Z,1.60
2019-02-03T15:50:08.739Z,1.50
2019-02-03T15:52:35.395Z,1.60
2019-02-03T15:55:02.120Z,1.70
2019-02-03T15:57:30.922Z,1.60
2019-02-03T15:59:57.923Z,1.40
2019-02-03T16:02:24.689Z,1.50
2019-02-03T16:04:51.014Z,1.50
2019-02-03T16:07:17.598Z,1.50
2019-02-03T16:09:43.912Z,1.50
2019-02-03T16:12:10.356Z,1.40
2019-02-03T16:14:36.674Z,1.30
2019-02-03T16:17:03.442Z,1.40
2019-02-03T16:19:30.097Z,1.40
2019-02-03T16:21:56.423Z,1.40
2019-02-03T16:24:23.165Z,1.30
2019-02-03T16:26:49.805Z,1.40
2019-02-03T16:29:16.139Z,1.40
2019-02-03T16:31:42.742Z,1.40
2019-02-03T16:34:09.271Z,1.40
2019-02-03T16:36:35.615Z,1.40
2019-02-03T16:39:06.189Z,1.50
2019-02-03T16:41:33.921Z,1.50
2019-02-03T16:44:00.226Z,1.50
2019-02-03T16:46:26.552Z,1.50
2019-02-03T16:48:53.019Z,1.50
2019-02-03T16:51:19.484Z,1.60
2019-02-03T16:53:46.372Z,1.60
2019-02-03T16:56:13.192Z,1.40
2019-02-03T16:58:39.838Z,1.50
2019-02-03T17:01:06.471Z,1.50
2019-02-03T17:03:32.843Z,1.50
2019-02-03T17:05:59.472Z,1.40
2019-02-03T17:08:26.269Z,1.30
2019-02-03T17:10:52.717Z,1.50
2019-02-03T17:13:19.850Z,1.50
2019-02-03T17:15:50.442Z,1.40
2019-02-03T17:18:16.942Z,1.40
2019-02-03T17:20:43.775Z,1.50
2019-02-03T17:23:10.470Z,1.50
2019-02-03T17:25:48.734Z,1.50
2019-02-03T17:28:15.393Z,1.50
2019-02-03T17:30:42.031Z,1.50
2019-02-03T17:33:08.862Z,1.50
2019-02-03T17:35:35.837Z,1.50
2019-02-03T17:38:03.004Z,1.60
2019-02-03T17:40:30.680Z,1.50
2019-02-03T17:42:57.123Z,1.50
2019-02-03T17:45:25.041Z,1.40
2019-02-03T17:47:51.476Z,1.40
2019-02-03T17:50:26.554Z,1.50
2019-02-03T17:52:53.194Z,1.50
2019-02-03T17:55:19.540Z,1.50
2019-02-03T17:57:46.149Z,1.50
2019-02-03T18:00:30.626Z,1.40
2019-02-03T18:02:57.499Z,1.40
2019-02-03T18:05:26.190Z,1.40
2019-02-03T18:07:52.600Z,1.30
2019-02-03T18:10:22.563Z,1.40
2019-02-03T18:12:49.306Z,1.40
2019-02-03T18:15:16.235Z,1.40
2019-02-03T18:17:42.827Z,1.40
2019-02-03T18:20:18.910Z,1.30
2019-02-03T18:22:45.575Z,1.30
2019-02-03T18:25:12.302Z,1.40
2019-02-03T18:27:39.368Z,1.30
2019-02-03T18:30:17.374Z,1.40
2019-02-03T18:32:44.411Z,1.30
2019-02-03T18:35:12.477Z,1.30
2019-02-03T18:37:39.142Z,1.30
2019-02-03T18:40:16.588Z,1.20
2019-02-03T18:42:43.172Z,1.20
2019-02-03T18:45:13.402Z,1.20
2019-02-03T18:47:40.112Z,1.30
2019-02-03T18:50:11.519Z,1.30
2019-02-03T18:52:39.718Z,1.30
2019-02-03T18:55:23.722Z,1.40
2019-02-03T18:57:50.177Z,1.40
2019-02-03T19:00:20.291Z,1.40
2019-02-03T19:02:47.098Z,1.40
2019-02-03T19:05:17.735Z,1.30
2019-02-03T19:07:45.426Z,1.20
2019-02-03T19:10:16.291Z,1.20
2019-02-03T19:12:42.980Z,1.20
2019-02-03T19:15:11.885Z,1.20
2019-02-03T19:17:38.320Z,1.20
2019-02-03T19:20:25.042Z,1.10
2019-02-03T19:22:51.857Z,1.20
2019-02-03T19:25:20.317Z,1.20
2019-02-03T19:27:47.075Z,1.20
2019-02-03T19:30:20.432Z,1.10
2019-02-03T19:32:47.267Z,1.10
2019-02-03T19:35:16.214Z,1.10
2019-02-03T19:37:42.988Z,1.10
2019-02-03T19:40:18.419Z,1.00
2019-02-03T19:42:45.934Z,1.10
2019-02-03T19:45:21.503Z,1.20
2019-02-03T19:47:48.110Z,1.20
2019-02-03T19:50:22.640Z,1.30
2019-02-03T19:52:49.111Z,1.30
2019-02-03T19:55:15.540Z,1.30
2019-02-03T19:57:42.177Z,1.40
2019-02-03T20:00:17.406Z,1.30
2019-02-03T20:02:44.005Z,1.30
2019-02-03T20:05:10.666Z,1.30
2019-02-03T20:07:37.280Z,1.30
2019-02-03T20:10:17.759Z,1.20
2019-02-03T20:12:45.865Z,1.30
2019-02-03T20:15:15.918Z,1.20
2019-02-03T20:17:44.826Z,1.20
2019-02-03T20:20:18.438Z,1.30
2019-02-03T20:22:46.482Z,1.30
2019-02-03T20:25:13.453Z,1.10
2019-02-03T20:27:40.325Z,1.10
2019-02-03T20:30:21.258Z,1.10
2019-02-03T20:32:47.668Z,1.20
2019-02-03T20:35:20.442Z,1.30
2019-02-03T20:37:46.857Z,1.30
2019-02-03T20:40:17.986Z,1.30
2019-02-03T20:42:44.330Z,1.30
2019-02-03T20:45:20.869Z,1.30
2019-02-03T20:47:40.804Z,1.30
2019-02-03T20:50:22.712Z,1.40
2019-02-03T20:52:49.244Z,1.30
2019-02-03T20:55:19.965Z,1.40
2019-02-03T20:57:47.438Z,1.40
2019-02-03T21:00:20.380Z,1.20
2019-02-03T21:02:47.528Z,1.30
2019-02-03T21:05:13.891Z,1.30
2019-02-03T21:07:40.496Z,1.30
2019-02-03T21:10:14.353Z,1.40
2019-02-03T21:12:40.961Z,1.30
2019-02-03T21:15:14.222Z,1.30
2019-02-03T21:17:40.826Z,1.30
2019-02-03T21:20:12.840Z,1.40
2019-02-03T21:22:39.445Z,1.40
2019-02-03T21:25:06.218Z,1.50
2019-02-03T21:27:32.854Z,1.50
2019-02-03T21:29:59.449Z,1.40
2019-02-03T21:32:28.242Z,1.30
2019-02-03T21:34:54.722Z,1.30
2019-02-03T21:37:21.126Z,1.30
2019-02-03T21:39:48.914Z,1.40
2019-02-03T21:42:15.367Z,1.40
2019-02-03T21:44:42.167Z,1.50
2019-02-03T21:47:08.795Z,1.50
2019-02-03T21:49:36.291Z,1.40
2019-02-03T21:52:03.106Z,1.50
2019-02-03T21:54:29.807Z,1.50
2019-02-03T21:56:56.299Z,1.50
2019-02-03T21:59:22.684Z,1.40
2019-02-03T22:01:49.094Z,1.40
2019-02-03T22:04:16.439Z,1.50
2019-02-03T22:06:42.815Z,1.50
2019-02-03T22:09:09.519Z,1.40
2019-02-03T22:11:37.235Z,1.20
2019-02-03T22:14:03.775Z,1.20
2019-02-03T22:16:30.128Z,1.20
2019-02-03T22:18:56.818Z,1.30
2019-02-03T22:21:23.454Z,1.30
2019-02-03T22:23:50.043Z,1.20
2019-02-03T22:26:16.614Z,1.20
2019-02-03T22:28:42.909Z,1.20
2019-02-03T22:31:09.552Z,1.20
2019-02-03T22:33:36.122Z,1.30
2019-02-03T22:36:02.803Z,1.40
2019-02-03T22:38:31.322Z,1.40
2019-02-03T22:40:57.981Z,1.30
2019-02-03T22:43:24.461Z,1.30
2019-02-03T22:45:50.780Z,1.20
2019-02-03T22:48:17.446Z,1.20
2019-02-03T22:50:44.024Z,1.30
2019-02-03T22:53:10.416Z,1.30
2019-02-03T22:55:36.728Z,1.40
2019-02-03T22:58:03.385Z,1.40
2019-02-03T23:00:51.544Z,1.50
2019-02-03T23:03:21.958Z,1.40
2019-02-03T23:05:48.305Z,1.30
2019-02-03T23:08:14.628Z,1.30
2019-02-03T23:10:41.216Z,1.20
2019-02-03T23:13:07.780Z,1.20
2019-02-03T23:15:34.159Z,1.20
2019-02-03T23:18:00.908Z,1.10
2019-02-03T23:20:27.253Z,1.20
2019-02-03T23:22:53.696Z,1.20
2019-02-03T23:25:20.060Z,1.30
2019-02-03T23:27:46.393Z,1.30
2019-02-03T23:30:15.676Z,1.30
2019-02-03T23:32:42.021Z,1.30
2019-02-03T23:35:08.442Z,1.40
2019-02-03T23:37:34.761Z,1.40
2019-02-03T23:40:01.067Z,1.30
2019-02-03T23:42:27.643Z,1.20
2019-02-03T23:44:53.980Z,1.30
2019-02-03T23:47:20.561Z,1.30
2019-02-03T23:49:47.373Z,1.40
2019-02-03T23:52:13.689Z,1.40
2019-02-03T23:54:40.302Z,1.30
2019-02-03T23:57:06.648Z,1.30
2019-02-03T23:59:32.961Z,1.30
